createdAt,value
2018-02-22T00:00:59.440Z,22.74
2018-02-22T00:01:59.659Z,22.64
2018-02-22T00:02:59.913Z,22.64
2018-02-22T00:04:00.133Z,22.45
2018-02-22T00:05:00.374Z,22.55
2018-02-22T00:06:00.615Z,23.03
2018-02-22T00:07:00.857Z,22.74
2018-02-22T00:08:01.099Z,22.55
2018-02-22T00:09:01.338Z,22.74
2018-02-22T00:10:02.165Z,22.73
2018-02-22T00:11:01.805Z,22.53
2018-02-22T00:12:02.041Z,22.63
2018-02-22T00:13:02.289Z,22.64
2018-02-22T00:14:02.524Z,22.53
2018-02-22T00:15:02.765Z,22.53
2018-02-22T00:16:03.005Z,22.63
2018-02-22T00:17:03.247Z,22.63
2018-02-22T00:18:03.481Z,22.74
2018-02-22T00:19:03.711Z,22.53
2018-02-22T00:20:03.997Z,22.63
2018-02-22T00:21:04.196Z,22.53
2018-02-22T00:22:04.437Z,22.92
2018-02-22T00:23:04.677Z,22.73
2018-02-22T00:24:04.912Z,22.44
2018-02-22T00:25:05.155Z,23.02
2018-02-22T00:26:05.396Z,22.44
2018-02-22T00:27:05.637Z,22.53
2018-02-22T00:28:05.875Z,22.83
2018-02-22T00:29:06.116Z,22.84
2018-02-22T00:30:06.355Z,22.55
2018-02-22T00:31:06.596Z,22.63
2018-02-22T00:32:06.837Z,22.74
2018-02-22T00:33:07.076Z,22.84
2018-02-22T00:34:07.317Z,22.74
2018-02-22T00:35:07.557Z,22.83
2018-02-22T00:36:07.798Z,22.63
2018-02-22T00:37:08.038Z,22.63
2018-02-22T00:38:08.279Z,22.83
2018-02-22T00:39:08.522Z,22.55
2018-02-22T00:40:08.759Z,22.73
2018-02-22T00:41:08.996Z,22.84
2018-02-22T00:42:09.233Z,22.73
2018-02-22T00:43:09.467Z,22.53
2018-02-22T00:44:09.698Z,22.53
2018-02-22T00:45:09.939Z,22.73
2018-02-22T00:46:10.179Z,22.63
2018-02-22T00:47:10.420Z,22.63
2018-02-22T00:48:10.661Z,22.73
2018-02-22T00:49:10.902Z,22.83
2018-02-22T00:50:11.141Z,22.92
2018-02-22T00:51:11.374Z,22.83
2018-02-22T00:52:11.622Z,22.83
2018-02-22T00:53:11.863Z,22.53
2018-02-22T00:54:12.099Z,22.92
2018-02-22T00:55:12.344Z,22.63
2018-02-22T00:56:12.584Z,22.73
2018-02-22T00:57:12.823Z,22.63
2018-02-22T00:58:13.063Z,22.83
2018-02-22T00:59:13.303Z,22.53
2018-02-22T01:00:13.541Z,22.73
2018-02-22T01:01:13.785Z,22.53
2018-02-22T01:02:14.029Z,22.73
2018-02-22T01:03:14.264Z,22.83
2018-02-22T01:04:14.515Z,22.63
2018-02-22T01:05:14.740Z,22.63
2018-02-22T01:06:14.980Z,22.53
2018-02-22T01:07:15.216Z,22.83
2018-02-22T01:08:15.461Z,22.73
2018-02-22T01:09:15.702Z,22.73
2018-02-22T01:10:15.942Z,22.44
2018-02-22T01:11:16.183Z,22.53
2018-02-22T01:12:16.426Z,22.73
2018-02-22T01:13:16.667Z,22.83
2018-02-22T01:14:16.908Z,22.83
2018-02-22T01:15:17.151Z,22.73
2018-02-22T01:16:17.393Z,22.83
2018-02-22T01:17:17.633Z,22.63
2018-02-22T01:18:17.870Z,22.34
2018-02-22T01:19:18.110Z,22.53
2018-02-22T01:20:18.351Z,22.25
2018-02-22T01:21:18.592Z,22.34
2018-02-22T01:22:18.831Z,22.73
2018-02-22T01:23:19.687Z,22.53
2018-02-22T01:24:19.306Z,22.53
2018-02-22T01:25:19.546Z,22.53
2018-02-22T01:26:20.791Z,22.53
2018-02-22T01:27:20.104Z,22.73
2018-02-22T01:28:20.339Z,22.34
2018-02-22T01:29:20.589Z,22.83
2018-02-22T01:30:20.823Z,22.44
2018-02-22T01:31:21.060Z,22.63
2018-02-22T01:32:21.296Z,22.53
2018-02-22T01:33:21.535Z,22.53
2018-02-22T01:34:21.778Z,22.92
2018-02-22T01:35:22.012Z,22.34
2018-02-22T01:36:22.253Z,22.25
2018-02-22T01:37:22.493Z,22.34
2018-02-22T01:38:22.733Z,22.25
2018-02-22T01:39:22.973Z,22.63
2018-02-22T01:40:23.221Z,22.34
2018-02-22T01:41:23.453Z,22.73
2018-02-22T01:42:23.694Z,22.63
2018-02-22T01:43:23.934Z,22.83
2018-02-22T01:44:24.174Z,22.34
2018-02-22T01:45:24.415Z,22.15
2018-02-22T01:46:24.654Z,22.25
2018-02-22T01:47:24.894Z,22.34
2018-02-22T01:48:25.134Z,22.63
2018-02-22T01:49:25.375Z,22.63
2018-02-22T01:50:25.612Z,22.45
2018-02-22T01:51:25.856Z,22.83
2018-02-22T01:52:26.096Z,22.83
2018-02-22T01:53:26.336Z,22.63
2018-02-22T01:54:26.572Z,22.25
2018-02-22T01:55:26.813Z,22.25
2018-02-22T01:56:27.054Z,22.15
2018-02-22T01:57:27.294Z,22.83
2018-02-22T01:58:27.534Z,22.83
2018-02-22T01:59:27.780Z,22.25
2018-02-22T02:00:28.015Z,22.44
2018-02-22T02:01:28.255Z,22.25
2018-02-22T02:02:28.496Z,22.15
2018-02-22T02:03:28.736Z,22.25
2018-02-22T02:04:28.977Z,22.63
2018-02-22T02:05:29.218Z,22.83
2018-02-22T02:06:29.458Z,22.73
2018-02-22T02:07:29.711Z,22.92
2018-02-22T02:08:29.938Z,22.73
2018-02-22T02:09:30.177Z,22.34
2018-02-22T02:10:30.428Z,22.44
2018-02-22T02:11:30.664Z,22.44
2018-02-22T02:12:30.891Z,22.44
2018-02-22T02:13:31.133Z,22.44
2018-02-22T02:14:31.385Z,22.34
2018-02-22T02:15:31.619Z,22.63
2018-02-22T02:16:31.848Z,22.83
2018-02-22T02:17:32.106Z,22.63
2018-02-22T02:18:32.332Z,22.83
2018-02-22T02:19:33.214Z,22.53
2018-02-22T02:20:32.811Z,22.15
2018-02-22T02:21:33.061Z,22.25
2018-02-22T02:22:33.301Z,22.25
2018-02-22T02:23:33.546Z,22.15
2018-02-22T02:24:33.769Z,22.63
2018-02-22T02:25:34.022Z,22.73
2018-02-22T02:26:34.272Z,22.53
2018-02-22T02:27:34.510Z,22.53
2018-02-22T02:28:34.751Z,22.15
2018-02-22T02:29:34.990Z,22.34
2018-02-22T02:30:35.231Z,22.55
2018-02-22T02:31:35.473Z,22.63
2018-02-22T02:32:35.712Z,22.25
2018-02-22T02:33:35.952Z,22.53
2018-02-22T02:34:36.195Z,22.44
2018-02-22T02:35:36.429Z,22.25
2018-02-22T02:36:36.665Z,22.73
2018-02-22T02:37:36.898Z,22.34
2018-02-22T02:38:37.139Z,22.44
2018-02-22T02:39:37.373Z,22.53
2018-02-22T02:40:37.620Z,22.25
2018-02-22T02:41:37.863Z,22.53
2018-02-22T02:42:38.100Z,22.63
2018-02-22T02:43:38.341Z,22.53
2018-02-22T02:44:38.581Z,22.83
2018-02-22T02:45:38.820Z,22.44
2018-02-22T02:46:39.058Z,22.73
2018-02-22T02:47:39.298Z,22.25
2018-02-22T02:48:39.539Z,22.44
2018-02-22T02:49:39.781Z,22.63
2018-02-22T02:50:40.025Z,22.44
2018-02-22T02:51:40.267Z,22.34
2018-02-22T02:52:40.505Z,22.53
2018-02-22T02:53:40.746Z,22.44
2018-02-22T02:54:40.986Z,22.53
2018-02-22T02:55:41.224Z,22.44
2018-02-22T02:56:41.462Z,22.73
2018-02-22T02:57:41.710Z,22.15
2018-02-22T02:58:41.938Z,22.64
2018-02-22T02:59:42.178Z,22.53
2018-02-22T03:00:42.418Z,22.44
2018-02-22T03:01:42.661Z,22.44
2018-02-22T03:02:42.899Z,22.53
2018-02-22T03:03:43.140Z,22.44
2018-02-22T03:04:43.380Z,22.44
2018-02-22T03:05:43.620Z,22.53
2018-02-22T03:06:43.860Z,22.53
2018-02-22T03:07:44.101Z,22.34
2018-02-22T03:08:44.341Z,22.44
2018-02-22T03:09:44.581Z,22.25
2018-02-22T03:10:44.822Z,22.44
2018-02-22T03:11:45.063Z,22.53
2018-02-22T03:12:45.302Z,22.73
2018-02-22T03:13:45.543Z,22.34
2018-02-22T03:14:45.782Z,22.73
2018-02-22T03:15:46.022Z,22.53
2018-02-22T03:16:46.263Z,22.53
2018-02-22T03:17:46.503Z,22.34
2018-02-22T03:18:46.743Z,22.25
2018-02-22T03:19:46.984Z,22.25
2018-02-22T03:20:47.223Z,22.44
2018-02-22T03:21:47.463Z,22.34
2018-02-22T03:22:47.709Z,22.63
2018-02-22T03:23:47.935Z,22.44
2018-02-22T03:24:48.174Z,22.15
2018-02-22T03:25:48.413Z,22.34
2018-02-22T03:26:48.653Z,22.73
2018-02-22T03:27:48.896Z,22.34
2018-02-22T03:28:49.827Z,22.25
2018-02-22T03:29:49.377Z,22.34
2018-02-22T03:30:49.619Z,22.73
2018-02-22T03:31:49.859Z,22.53
2018-02-22T03:32:50.100Z,22.25
2018-02-22T03:33:50.340Z,22.44
2018-02-22T03:34:50.581Z,22.34
2018-02-22T03:35:50.821Z,22.25
2018-02-22T03:36:51.062Z,22.15
2018-02-22T03:37:52.233Z,22.25
2018-02-22T03:38:51.521Z,22.73
2018-02-22T03:39:51.761Z,22.34
2018-02-22T03:40:52.001Z,22.44
2018-02-22T03:41:52.236Z,22.53
2018-02-22T03:42:52.467Z,22.34
2018-02-22T03:43:52.722Z,22.25
2018-02-22T03:44:52.945Z,22.15
2018-02-22T03:45:53.187Z,22.05
2018-02-22T03:46:53.426Z,22.15
2018-02-22T03:47:53.667Z,22.25
2018-02-22T03:48:53.907Z,22.34
2018-02-22T03:49:54.148Z,22.25
2018-02-22T03:50:54.388Z,22.53
2018-02-22T03:51:54.627Z,22.73
2018-02-22T03:52:54.868Z,22.25
2018-02-22T03:53:55.109Z,22.34
2018-02-22T03:54:55.349Z,22.73
2018-02-22T03:55:55.588Z,22.25
2018-02-22T03:56:55.828Z,22.44
2018-02-22T03:57:56.069Z,22.34
2018-02-22T03:58:56.313Z,22.34
2018-02-22T03:59:56.549Z,22.25
2018-02-22T04:00:56.790Z,22.34
2018-02-22T04:01:57.031Z,22.34
2018-02-22T04:02:57.271Z,22.25
2018-02-22T04:03:57.511Z,22.34
2018-02-22T04:04:57.749Z,22.25
2018-02-22T04:05:57.991Z,22.25
2018-02-22T04:06:58.232Z,22.34
2018-02-22T04:07:58.472Z,22.25
2018-02-22T04:08:58.713Z,22.34
2018-02-22T04:09:58.954Z,22.34
2018-02-22T04:10:59.200Z,22.34
2018-02-22T04:12:00.341Z,22.25
2018-02-22T04:12:59.664Z,22.34
2018-02-22T04:13:59.906Z,22.25
2018-02-22T04:15:00.146Z,22.34
2018-02-22T04:16:00.385Z,22.05
2018-02-22T04:17:00.626Z,22.15
2018-02-22T04:18:00.866Z,22.36
2018-02-22T04:19:01.108Z,22.53
2018-02-22T04:20:01.355Z,22.44
2018-02-22T04:21:01.583Z,22.34
2018-02-22T04:22:01.823Z,22.34
2018-02-22T04:23:02.063Z,22.34
2018-02-22T04:24:02.302Z,22.63
2018-02-22T04:25:02.547Z,22.34
2018-02-22T04:26:02.783Z,22.25
2018-02-22T04:27:03.024Z,22.83
2018-02-22T04:28:03.266Z,22.34
2018-02-22T04:29:03.486Z,22.73
2018-02-22T04:30:03.718Z,22.34
2018-02-22T04:31:03.959Z,22.34
2018-02-22T04:32:04.198Z,22.44
2018-02-22T04:33:04.439Z,22.44
2018-02-22T04:34:04.680Z,22.44
2018-02-22T04:35:04.911Z,22.25
2018-02-22T04:36:05.145Z,22.15
2018-02-22T04:37:05.385Z,22.05
2018-02-22T04:38:05.627Z,22.15
2018-02-22T04:39:05.866Z,22.53
2018-02-22T04:40:06.106Z,22.34
2018-02-22T04:41:06.346Z,22.34
2018-02-22T04:42:06.588Z,22.34
2018-02-22T04:43:06.828Z,22.44
2018-02-22T04:44:07.068Z,22.34
2018-02-22T04:45:07.294Z,22.05
2018-02-22T04:46:07.538Z,22.15
2018-02-22T04:47:07.779Z,22.15
2018-02-22T04:48:08.011Z,22.53
2018-02-22T04:49:08.255Z,22.44
2018-02-22T04:50:08.493Z,22.44
2018-02-22T04:51:08.734Z,22.53
2018-02-22T04:52:08.969Z,22.63
2018-02-22T04:53:09.205Z,22.15
2018-02-22T04:54:10.258Z,22.15
2018-02-22T04:55:09.670Z,22.25
2018-02-22T04:56:09.909Z,22.63
2018-02-22T04:57:10.154Z,22.34
2018-02-22T04:58:10.395Z,22.34
2018-02-22T04:59:10.619Z,22.34
2018-02-22T05:00:10.879Z,22.44
2018-02-22T05:01:11.116Z,22.34
2018-02-22T05:02:11.347Z,22.34
2018-02-22T05:03:11.587Z,22.15
2018-02-22T05:04:11.869Z,22.34
2018-02-22T05:05:12.068Z,22.34
2018-02-22T05:06:12.295Z,22.44
2018-02-22T05:07:12.543Z,22.53
2018-02-22T05:08:12.792Z,22.44
2018-02-22T05:09:13.023Z,22.34
2018-02-22T05:10:13.262Z,22.44
2018-02-22T05:11:13.501Z,22.34
2018-02-22T05:12:13.742Z,22.34
2018-02-22T05:13:13.985Z,22.25
2018-02-22T05:14:14.255Z,22.53
2018-02-22T05:15:14.463Z,22.44
2018-02-22T05:16:14.703Z,22.25
2018-02-22T05:17:14.939Z,22.25
2018-02-22T05:18:15.189Z,22.34
2018-02-22T05:19:15.416Z,22.53
2018-02-22T05:20:15.656Z,22.25
2018-02-22T05:21:15.898Z,22.34
2018-02-22T05:22:16.138Z,22.73
2018-02-22T05:23:16.376Z,22.44
2018-02-22T05:24:16.619Z,22.34
2018-02-22T05:25:16.859Z,21.96
2018-02-22T05:26:17.100Z,22.05
2018-02-22T05:27:17.323Z,22.05
2018-02-22T05:28:17.576Z,22.63
2018-02-22T05:29:17.818Z,22.44
2018-02-22T05:30:18.047Z,22.53
2018-02-22T05:31:18.287Z,22.73
2018-02-22T05:32:18.528Z,22.34
2018-02-22T05:33:18.770Z,22.53
2018-02-22T05:34:19.060Z,21.96
2018-02-22T05:35:19.258Z,22.15
2018-02-22T05:36:19.487Z,21.96
2018-02-22T05:37:19.731Z,22.05
2018-02-22T05:38:19.970Z,22.34
2018-02-22T05:39:20.773Z,22.73
2018-02-22T05:40:20.455Z,22.25
2018-02-22T05:41:20.695Z,22.53
2018-02-22T05:42:20.935Z,22.15
2018-02-22T05:43:21.176Z,22.05
2018-02-22T05:44:21.416Z,22.15
2018-02-22T05:45:21.657Z,22.05
2018-02-22T05:46:21.901Z,22.05
2018-02-22T05:47:22.146Z,22.34
2018-02-22T05:48:22.380Z,22.34
2018-02-22T05:49:22.610Z,22.63
2018-02-22T05:50:22.850Z,22.05
2018-02-22T05:51:23.091Z,22.25
2018-02-22T05:52:23.331Z,21.96
2018-02-22T05:53:23.571Z,22.05
2018-02-22T05:54:23.806Z,21.96
2018-02-22T05:55:24.041Z,22.53
2018-02-22T05:56:24.275Z,22.25
2018-02-22T05:57:24.516Z,22.34
2018-02-22T05:58:24.761Z,22.34
2018-02-22T05:59:25.000Z,22.05
2018-02-22T06:00:25.227Z,22.34
2018-02-22T06:01:25.467Z,22.05
2018-02-22T06:02:25.703Z,22.25
2018-02-22T06:03:25.933Z,22.05
2018-02-22T06:04:26.174Z,22.15
2018-02-22T06:05:26.415Z,22.34
2018-02-22T06:06:26.655Z,22.25
2018-02-22T06:07:26.896Z,22.34
2018-02-22T06:08:27.136Z,21.96
2018-02-22T06:09:27.362Z,22.34
2018-02-22T06:10:27.612Z,22.34
2018-02-22T06:11:27.850Z,22.34
2018-02-22T06:12:28.088Z,22.25
2018-02-22T06:13:28.330Z,22.34
2018-02-22T06:14:28.570Z,21.96
2018-02-22T06:15:28.804Z,22.05
2018-02-22T06:16:29.039Z,22.05
2018-02-22T06:17:29.284Z,21.96
2018-02-22T06:18:29.525Z,21.96
2018-02-22T06:19:29.764Z,22.34
2018-02-22T06:20:30.011Z,22.34
2018-02-22T06:21:30.242Z,22.25
2018-02-22T06:22:30.495Z,22.25
2018-02-22T06:23:30.722Z,22.05
2018-02-22T06:24:30.963Z,22.53
2018-02-22T06:25:31.202Z,22.25
2018-02-22T06:26:31.447Z,22.53
2018-02-22T06:27:31.684Z,22.05
2018-02-22T06:28:31.928Z,22.25
2018-02-22T06:29:32.166Z,22.34
2018-02-22T06:30:32.404Z,22.34
2018-02-22T06:31:32.642Z,22.15
2018-02-22T06:32:32.877Z,22.34
2018-02-22T06:33:33.112Z,22.05
2018-02-22T06:34:33.347Z,22.34
2018-02-22T06:35:33.591Z,22.15
2018-02-22T06:36:33.830Z,22.05
2018-02-22T06:37:34.069Z,22.25
2018-02-22T06:38:34.307Z,22.25
2018-02-22T06:39:34.547Z,22.34
2018-02-22T06:40:34.813Z,22.34
2018-02-22T06:41:35.029Z,22.15
2018-02-22T06:42:35.269Z,22.25
2018-02-22T06:43:35.510Z,22.15
2018-02-22T06:44:35.746Z,22.05
2018-02-22T06:45:36.014Z,22.05
2018-02-22T06:46:36.224Z,22.05
2018-02-22T06:47:36.467Z,22.15
2018-02-22T06:48:36.718Z,22.34
2018-02-22T06:49:36.965Z,22.34
2018-02-22T06:50:37.197Z,22.34
2018-02-22T06:51:37.438Z,22.34
2018-02-22T06:52:37.678Z,22.44
2018-02-22T06:56:41.038Z,22.15
2018-02-22T06:57:41.278Z,22.53
2018-02-22T06:58:41.520Z,22.34
2018-02-22T06:59:41.754Z,22.44
2018-02-22T07:00:42.004Z,22.15
2018-02-22T07:01:42.230Z,22.34
2018-02-22T07:02:42.470Z,22.25
2018-02-22T07:03:42.710Z,22.53
2018-02-22T07:04:43.559Z,22.05
2018-02-22T07:05:43.366Z,22.05
2018-02-22T07:06:43.607Z,21.96
2018-02-22T07:07:43.846Z,22.34
2018-02-22T07:08:44.086Z,22.34
2018-02-22T07:09:44.325Z,21.96
2018-02-22T07:10:44.567Z,21.96
2018-02-22T07:11:44.798Z,21.96
2018-02-22T07:12:45.043Z,21.96
2018-02-22T07:13:45.282Z,21.96
2018-02-22T07:14:45.524Z,22.05
2018-02-22T07:15:45.764Z,22.25
2018-02-22T07:16:46.004Z,22.05
2018-02-22T07:17:46.249Z,22.05
2018-02-22T07:18:46.482Z,22.25
2018-02-22T07:19:46.722Z,22.25
2018-02-22T07:20:46.963Z,21.86
2018-02-22T07:21:47.202Z,21.86
2018-02-22T07:22:47.442Z,21.77
2018-02-22T07:23:47.682Z,22.53
2018-02-22T07:24:47.913Z,22.25
2018-02-22T07:25:48.164Z,22.15
2018-02-22T07:26:48.396Z,22.25
2018-02-22T07:27:48.906Z,22.25
2018-02-22T07:28:48.907Z,22.05
2018-02-22T07:29:49.109Z,21.97
2018-02-22T07:30:49.351Z,21.96
2018-02-22T07:31:49.586Z,22.25
2018-02-22T07:32:49.826Z,22.25
2018-02-22T07:33:50.068Z,22.25
2018-02-22T07:34:50.305Z,22.15
2018-02-22T07:35:50.547Z,22.25
2018-02-22T07:36:50.786Z,22.34
2018-02-22T07:37:51.025Z,22.25
2018-02-22T07:38:52.069Z,21.96
2018-02-22T07:39:51.489Z,21.77
2018-02-22T07:40:51.727Z,21.96
2018-02-22T07:41:51.970Z,21.96
2018-02-22T07:42:52.208Z,22.25
2018-02-22T07:43:52.450Z,22.25
2018-02-22T07:44:52.690Z,22.53
2018-02-22T07:45:52.933Z,22.05
2018-02-22T07:46:53.171Z,22.34
2018-02-22T07:47:53.411Z,22.25
2018-02-22T07:48:53.652Z,21.77
2018-02-22T07:49:53.893Z,22.15
2018-02-22T07:50:54.133Z,21.96
2018-02-22T07:51:54.372Z,22.25
2018-02-22T07:52:54.616Z,22.34
2018-02-22T07:53:54.848Z,22.34
2018-02-22T07:54:55.090Z,21.96
2018-02-22T07:55:55.339Z,22.34
2018-02-22T07:56:55.565Z,22.44
2018-02-22T07:57:55.805Z,21.77
2018-02-22T07:58:56.042Z,21.86
2018-02-22T07:59:56.276Z,22.05
2018-02-22T08:00:56.516Z,21.96
2018-02-22T08:01:56.750Z,22.25
2018-02-22T08:02:56.971Z,22.25
2018-02-22T08:03:57.212Z,22.44
2018-02-22T08:04:57.457Z,22.25
2018-02-22T08:05:57.680Z,22.34
2018-02-22T08:06:57.924Z,22.25
2018-02-22T08:07:58.158Z,22.34
2018-02-22T08:08:58.400Z,21.96
2018-02-22T08:09:58.642Z,21.96
2018-02-22T08:10:58.881Z,21.96
2018-02-22T08:12:00.080Z,21.78
2018-02-22T08:12:59.353Z,21.97
2018-02-22T08:13:59.597Z,21.86
2018-02-22T08:14:59.833Z,22.25
2018-02-22T08:16:00.072Z,22.25
2018-02-22T08:17:00.307Z,22.26
2018-02-22T08:18:00.548Z,21.78
2018-02-22T08:19:00.788Z,21.86
2018-02-22T08:20:01.030Z,21.97
2018-02-22T08:21:01.267Z,22.05
2018-02-22T08:22:02.099Z,22.05
2018-02-22T08:23:01.894Z,21.97
2018-02-22T08:24:02.135Z,21.78
2018-02-22T08:25:02.403Z,22.53
2018-02-22T08:26:02.647Z,22.34
2018-02-22T08:27:02.888Z,22.05
2018-02-22T08:28:03.129Z,22.34
2018-02-22T08:29:03.368Z,22.36
2018-02-22T08:30:03.608Z,22.25
2018-02-22T08:31:03.843Z,21.88
2018-02-22T08:32:04.073Z,22.05
2018-02-22T08:33:04.313Z,21.96
2018-02-22T08:34:04.553Z,22.06
2018-02-22T08:35:04.793Z,21.86
2018-02-22T08:36:05.032Z,22.34
2018-02-22T08:37:05.269Z,22.36
2018-02-22T08:38:05.516Z,22.34
2018-02-22T08:39:05.755Z,22.06
2018-02-22T08:40:06.021Z,22.26
2018-02-22T08:41:06.231Z,21.96
2018-02-22T08:42:06.472Z,21.78
2018-02-22T08:43:06.712Z,22.55
2018-02-22T08:44:06.952Z,22.25
2018-02-22T08:45:07.191Z,22.25
2018-02-22T08:46:07.434Z,22.06
2018-02-22T08:47:07.672Z,22.34
2018-02-22T08:48:07.913Z,22.53
2018-02-22T08:49:08.152Z,21.96
2018-02-22T08:50:08.393Z,22.05
2018-02-22T08:51:08.632Z,22.26
2018-02-22T08:52:08.874Z,22.34
2018-02-22T08:53:09.113Z,22.55
2018-02-22T08:54:09.354Z,22.26
2018-02-22T08:55:09.596Z,22.05
2018-02-22T08:56:09.834Z,22.53
2018-02-22T08:57:10.331Z,22.05
2018-02-22T08:58:10.319Z,22.05
2018-02-22T08:59:10.556Z,22.53
2018-02-22T09:00:11.596Z,22.25
2018-02-22T09:01:11.024Z,22.25
2018-02-22T09:02:11.276Z,21.86
2018-02-22T09:03:11.515Z,22.34
2018-02-22T09:04:11.756Z,22.25
2018-02-22T09:05:12.597Z,21.96
2018-02-22T09:06:12.235Z,21.97
2018-02-22T09:07:12.474Z,22.25
2018-02-22T09:08:12.708Z,22.45
2018-02-22T09:09:12.949Z,22.25
2018-02-22T09:10:13.190Z,22.25
2018-02-22T09:11:13.429Z,22.15
2018-02-22T09:12:13.669Z,22.05
2018-02-22T09:13:13.913Z,22.15
2018-02-22T09:14:14.150Z,22.25
2018-02-22T09:15:14.390Z,22.36
2018-02-22T09:16:14.630Z,22.26
2018-02-22T09:17:14.870Z,21.88
2018-02-22T09:18:15.111Z,22.25
2018-02-22T09:19:15.356Z,22.26
2018-02-22T09:20:15.589Z,22.15
2018-02-22T09:21:15.833Z,22.15
2018-02-22T09:22:16.077Z,22.25
2018-02-22T09:23:16.314Z,22.53
2018-02-22T09:24:16.549Z,22.26
2018-02-22T09:25:16.785Z,21.78
2018-02-22T09:26:17.024Z,21.97
2018-02-22T09:27:17.266Z,21.86
2018-02-22T09:28:17.504Z,21.77
2018-02-22T09:29:17.740Z,22.34
2018-02-22T09:30:17.990Z,22.34
2018-02-22T09:31:18.219Z,22.34
2018-02-22T09:32:18.458Z,22.36
2018-02-22T09:33:18.698Z,21.77
2018-02-22T09:34:18.942Z,21.86
2018-02-22T09:35:19.179Z,22.05
2018-02-22T09:36:19.419Z,21.96
2018-02-22T09:37:19.660Z,21.96
2018-02-22T09:38:19.899Z,22.25
2018-02-22T09:39:20.140Z,22.34
2018-02-22T09:40:20.380Z,22.25
2018-02-22T09:41:20.626Z,22.34
2018-02-22T09:42:20.859Z,22.25
2018-02-22T09:43:21.099Z,22.05
2018-02-22T09:44:21.359Z,21.86
2018-02-22T09:45:21.601Z,21.96
2018-02-22T09:46:21.845Z,22.05
2018-02-22T09:47:22.076Z,22.15
2018-02-22T09:48:23.150Z,22.44
2018-02-22T09:49:22.542Z,22.15
2018-02-22T09:50:22.784Z,22.34
2018-02-22T09:51:23.024Z,22.25
2018-02-22T09:52:23.262Z,21.86
2018-02-22T09:53:23.503Z,22.06
2018-02-22T09:54:23.743Z,22.05
2018-02-22T09:55:23.983Z,22.15
2018-02-22T09:56:24.219Z,22.05
2018-02-22T09:57:25.211Z,21.96
2018-02-22T09:58:24.754Z,22.25
2018-02-22T09:59:25.004Z,22.34
2018-02-22T10:00:25.254Z,22.25
2018-02-22T10:01:25.483Z,21.96
2018-02-22T10:02:25.723Z,21.86
2018-02-22T10:03:25.960Z,21.97
2018-02-22T10:04:26.200Z,22.06
2018-02-22T10:05:26.440Z,21.97
2018-02-22T10:06:26.681Z,22.06
2018-02-22T10:07:26.921Z,22.05
2018-02-22T10:08:27.174Z,21.97
2018-02-22T10:09:27.400Z,21.58
2018-02-22T10:10:27.641Z,21.67
2018-02-22T10:11:27.882Z,22.06
2018-02-22T10:12:28.122Z,21.86
2018-02-22T10:13:28.363Z,21.86
2018-02-22T10:14:28.602Z,22.06
2018-02-22T10:15:28.844Z,21.77
2018-02-22T10:16:29.522Z,21.86
2018-02-22T10:17:29.325Z,22.15
2018-02-22T10:18:29.781Z,22.05
2018-02-22T10:19:29.963Z,21.77
2018-02-22T10:20:30.037Z,21.67
2018-02-22T10:21:30.276Z,21.97
2018-02-22T10:22:30.518Z,22.05
2018-02-22T10:23:30.756Z,21.86
2018-02-22T10:24:31.001Z,21.97
2018-02-22T10:25:31.237Z,22.06
2018-02-22T10:26:31.477Z,21.77
2018-02-22T10:27:31.718Z,22.16
2018-02-22T10:28:31.961Z,21.96
2018-02-22T10:29:32.201Z,21.96
2018-02-22T10:30:32.436Z,22.25
2018-02-22T10:31:32.686Z,21.77
2018-02-22T10:32:32.910Z,22.05
2018-02-22T10:33:33.150Z,22.05
2018-02-22T10:34:33.396Z,21.77
2018-02-22T10:35:33.632Z,21.88
2018-02-22T10:36:33.873Z,21.97
2018-02-22T10:37:34.113Z,21.96
2018-02-22T10:38:34.354Z,21.77
2018-02-22T10:39:34.595Z,22.25
2018-02-22T10:40:34.832Z,21.88
2018-02-22T10:41:35.073Z,22.06
2018-02-22T10:42:35.314Z,21.67
2018-02-22T10:43:35.555Z,21.96
2018-02-22T10:44:35.781Z,21.78
2018-02-22T10:45:36.039Z,21.86
2018-02-22T10:46:36.540Z,21.58
2018-02-22T10:47:36.900Z,21.78
2018-02-22T10:48:36.772Z,22.06
2018-02-22T10:49:37.227Z,21.67
2018-02-22T10:50:37.224Z,22.06
2018-02-22T10:51:37.463Z,21.78
2018-02-22T10:52:37.703Z,21.68
2018-02-22T10:53:37.944Z,21.68
2018-02-22T10:54:38.188Z,21.88
2018-02-22T10:55:38.426Z,21.58
2018-02-22T10:56:38.666Z,22.05
2018-02-22T10:57:38.907Z,21.96
2018-02-22T10:58:39.147Z,22.25
2018-02-22T10:59:39.387Z,22.36
2018-02-22T11:00:39.628Z,22.26
2018-02-22T11:01:39.868Z,21.88
2018-02-22T11:02:40.108Z,21.88
2018-02-22T11:03:40.352Z,22.06
2018-02-22T11:04:40.589Z,21.78
2018-02-22T11:05:40.830Z,21.97
2018-02-22T11:06:41.070Z,22.26
2018-02-22T11:07:41.310Z,21.97
2018-02-22T11:08:42.140Z,21.88
2018-02-22T11:09:41.781Z,21.96
2018-02-22T11:10:42.027Z,22.06
2018-02-22T11:11:42.263Z,22.16
2018-02-22T11:12:42.504Z,21.68
2018-02-22T11:13:42.744Z,21.78
2018-02-22T11:14:42.994Z,21.97
2018-02-22T11:15:43.268Z,21.97
2018-02-22T11:16:43.464Z,22.15
2018-02-22T11:17:43.705Z,22.44
2018-02-22T11:18:43.950Z,22.45
2018-02-22T11:19:44.223Z,22.26
2018-02-22T11:20:44.423Z,21.77
2018-02-22T11:21:44.658Z,21.96
2018-02-22T11:22:44.897Z,21.88
2018-02-22T11:23:45.138Z,22.06
2018-02-22T11:24:45.378Z,21.86
2018-02-22T11:25:45.620Z,21.86
2018-02-22T11:26:45.861Z,21.77
2018-02-22T11:27:46.097Z,22.44
2018-02-22T11:28:46.329Z,22.25
2018-02-22T11:29:46.571Z,22.53
2018-02-22T11:30:46.813Z,22.55
2018-02-22T11:31:47.052Z,22.06
2018-02-22T11:32:47.292Z,22.15
2018-02-22T11:33:47.530Z,21.97
2018-02-22T11:34:47.757Z,21.86
2018-02-22T11:35:47.992Z,22.06
2018-02-22T11:36:48.227Z,21.77
2018-02-22T11:37:48.471Z,22.25
2018-02-22T11:38:48.708Z,22.25
2018-02-22T11:39:48.948Z,22.26
2018-02-22T11:40:49.192Z,22.15
2018-02-22T11:41:49.429Z,22.06
2018-02-22T11:42:49.670Z,22.25
2018-02-22T11:43:49.910Z,22.06
2018-02-22T11:44:50.151Z,21.96
2018-02-22T11:45:51.148Z,22.05
2018-02-22T11:46:50.624Z,22.53
2018-02-22T11:47:50.862Z,22.34
2018-02-22T11:48:51.751Z,22.34
2018-02-22T11:49:51.525Z,21.96
2018-02-22T11:50:51.762Z,21.58
2018-02-22T11:51:52.026Z,21.67
2018-02-22T11:52:52.248Z,21.78
2018-02-22T11:53:52.499Z,21.78
2018-02-22T11:54:52.727Z,21.78
2018-02-22T11:55:52.966Z,21.77
2018-02-22T11:56:53.206Z,21.58
2018-02-22T11:57:53.444Z,21.96
2018-02-22T11:58:53.687Z,22.15
2018-02-22T11:59:53.926Z,21.96
2018-02-22T12:00:54.165Z,21.96
2018-02-22T12:01:54.404Z,21.78
2018-02-22T12:02:54.640Z,21.78
2018-02-22T12:03:54.886Z,21.67
2018-02-22T12:04:55.137Z,21.67
2018-02-22T12:05:55.371Z,22.25
2018-02-22T12:06:55.599Z,22.06
2018-02-22T12:07:55.839Z,22.25
2018-02-22T12:08:56.080Z,21.77
2018-02-22T12:09:56.322Z,22.16
2018-02-22T12:10:56.560Z,21.97
2018-02-22T12:11:56.801Z,21.97
2018-02-22T12:12:57.042Z,21.68
2018-02-22T12:13:57.282Z,21.77
2018-02-22T12:14:57.518Z,21.96
2018-02-22T12:15:57.749Z,21.96
2018-02-22T12:16:57.989Z,21.77
2018-02-22T12:17:58.228Z,21.97
2018-02-22T12:18:58.468Z,21.96
2018-02-22T12:19:58.711Z,22.16
2018-02-22T12:20:58.949Z,21.58
2018-02-22T12:21:59.189Z,21.78
2018-02-22T12:22:59.431Z,22.05
2018-02-22T12:23:59.668Z,22.15
2018-02-22T12:24:59.909Z,22.05
2018-02-22T12:26:00.149Z,21.77
2018-02-22T12:27:00.388Z,21.96
2018-02-22T12:28:00.629Z,21.86
2018-02-22T12:29:00.869Z,21.78
2018-02-22T12:30:01.109Z,21.58
2018-02-22T12:31:01.351Z,21.96
2018-02-22T12:32:01.585Z,21.86
2018-02-22T12:33:01.826Z,21.77
2018-02-22T12:34:02.069Z,22.05
2018-02-22T12:35:02.306Z,21.86
2018-02-22T12:36:02.547Z,21.86
2018-02-22T12:37:02.782Z,22.05
2018-02-22T12:38:03.061Z,22.06
2018-02-22T12:39:03.254Z,21.77
2018-02-22T12:40:03.498Z,21.78
2018-02-22T12:41:03.738Z,22.15
2018-02-22T12:42:03.976Z,21.67
2018-02-22T12:43:04.219Z,22.05
2018-02-22T12:44:04.451Z,22.15
2018-02-22T12:45:04.694Z,21.58
2018-02-22T12:46:04.923Z,22.06
2018-02-22T12:47:05.164Z,21.78
2018-02-22T12:48:05.404Z,22.16
2018-02-22T12:49:05.644Z,21.96
2018-02-22T12:50:05.885Z,22.05
2018-02-22T12:51:06.124Z,22.06
2018-02-22T12:52:06.365Z,21.96
2018-02-22T12:53:06.605Z,22.15
2018-02-22T12:54:06.850Z,22.05
2018-02-22T12:55:07.087Z,21.88
2018-02-22T12:56:07.327Z,21.78
2018-02-22T12:57:07.571Z,21.78
2018-02-22T12:58:07.807Z,21.78
2018-02-22T12:59:08.051Z,21.77